Time;durP1;ratioP1;P1;durP2;ratioP2;P2;SDS_P1;SDS_P2;PMS_P1;PMS_P2;Temp;Humidity;BMP_temperature;BMP_pressure;BME280_temperature;BME280_humidity;BME280_pressure;Samples;Min_cycle;Max_cycle;Signal;HPM_P1;HPM_P2
2023/05/09 00:01:34;;;;;;;1.60;1.50;;;;;;;;;;6207582;28;20323;-68
2023/05/09 00:04:55;;;;;;;1.57;1.47;;;;;;;;;;6211880;28;20229;-67
2023/05/09 00:08:16;;;;;;;1.80;1.70;;;;;;;;;;6194870;28;20229;-67
2023/05/09 00:11:38;;;;;;;1.73;1.33;;;;;;;;;;6210362;28;20244;-68
2023/05/09 00:14:58;;;;;;;10.07;1.73;;;;;;;;;;6210854;28;20232;-68
2023/05/09 00:18:19;;;;;;;2.27;2.17;;;;;;;;;;6233166;28;20594;-67
2023/05/09 00:21:39;;;;;;;3.40;2.23;;;;;;;;;;6237252;28;20230;-68
2023/05/09 00:25:00;;;;;;;14.33;1.97;;;;;;;;;;6232938;28;20607;-68
2023/05/09 00:28:22;;;;;;;2.47;1.77;;;;;;;;;;6233262;28;20228;-67
2023/05/09 00:31:43;;;;;;;1.87;1.70;;;;;;;;;;6256668;28;20548;-67
2023/05/09 00:35:04;;;;;;;3.57;2.53;;;;;;;;;;6233569;28;20232;-67
2023/05/09 00:38:24;;;;;;;1.40;1.30;;;;;;;;;;6242297;28;20236;-67
2023/05/09 00:41:45;;;;;;;3.23;1.97;;;;;;;;;;6211874;28;20232;-67
2023/05/09 00:45:07;;;;;;;1.57;1.47;;;;;;;;;;6205460;28;20233;-67
2023/05/09 00:48:28;;;;;;;1.77;1.67;;;;;;;;;;6213093;28;20229;-68
2023/05/09 00:51:48;;;;;;;4.37;1.80;;;;;;;;;;6211677;28;20228;-67
2023/05/09 00:55:10;;;;;;;2.57;2.10;;;;;;;;;;6227880;28;20244;-67
2023/05/09 00:58:30;;;;;;;2.40;1.60;;;;;;;;;;6238680;28;20240;-67
2023/05/09 01:01:52;;;;;;;3.17;2.23;;;;;;;;;;6244432;28;20231;-68
2023/05/09 01:05:12;;;;;;;1.50;1.40;;;;;;;;;;6232435;28;20219;-67
2023/05/09 01:08:44;;;;;;;4.40;2.83;;;;;;;;;;6226253;28;20232;-68
2023/05/09 01:12:12;;;;;;;3.43;1.80;;;;;;;;;;6249629;28;20235;-68
2023/05/09 01:15:36;;;;;;;6.07;2.33;;;;;;;;;;6225252;28;20227;-67
2023/05/09 01:19:02;;;;;;;1.47;1.37;;;;;;;;;;6234823;28;20316;-67
2023/05/09 01:22:26;;;;;;;1.87;1.77;;;;;;;;;;6253261;28;20226;-67
2023/05/09 01:25:55;;;;;;;2.13;2.03;;;;;;;;;;6225529;28;20219;-67
2023/05/09 01:29:29;;;;;;;2.27;2.00;;;;;;;;;;6243213;28;20235;-67
2023/05/09 01:32:50;;;;;;;2.67;2.47;;;;;;;;;;6244542;28;20232;-67
2023/05/09 01:36:13;;;;;;;2.10;1.73;;;;;;;;;;6211573;28;20571;-67
2023/05/09 01:39:34;;;;;;;3.93;2.20;;;;;;;;;;6210144;28;20693;-67
2023/05/09 01:42:57;;;;;;;2.90;2.27;;;;;;;;;;6222509;28;20233;-68
2023/05/09 01:46:20;;;;;;;2.30;2.10;;;;;;;;;;6194432;28;20472;-68
2023/05/09 01:49:41;;;;;;;1.97;1.87;;;;;;;;;;6216158;28;20316;-68
2023/05/09 01:53:01;;;;;;;2.33;2.23;;;;;;;;;;6205900;28;20248;-67
2023/05/09 01:56:23;;;;;;;3.57;2.47;;;;;;;;;;6220413;28;20228;-67
2023/05/09 01:59:44;;;;;;;2.27;1.97;;;;;;;;;;6213060;28;20233;-68
2023/05/09 02:03:06;;;;;;;5.17;4.23;;;;;;;;;;6196413;28;20245;-68
2023/05/09 02:06:28;;;;;;;1.77;1.67;;;;;;;;;;6216867;28;20220;-68
2023/05/09 02:09:52;;;;;;;3.20;2.23;;;;;;;;;;6223888;28;20619;-68
2023/05/09 02:13:13;;;;;;;6.97;3.13;;;;;;;;;;6213970;28;20229;-65
2023/05/09 02:16:34;;;;;;;5.97;2.13;;;;;;;;;;6218271;28;20270;-68
2023/05/09 02:19:57;;;;;;;3.77;2.80;;;;;;;;;;6213289;28;20237;-67
2023/05/09 02:23:18;;;;;;;2.70;2.50;;;;;;;;;;6216571;28;20622;-67
2023/05/09 02:26:40;;;;;;;3.13;2.57;;;;;;;;;;6217329;28;20229;-68
2023/05/09 02:30:03;;;;;;;2.70;2.50;;;;;;;;;;6218252;28;20332;-68
2023/05/09 02:33:24;;;;;;;2.60;2.47;;;;;;;;;;6223521;28;20243;-68
2023/05/09 02:36:47;;;;;;;1.77;1.67;;;;;;;;;;6257164;28;20616;-68
2023/05/09 02:40:09;;;;;;;4.23;2.23;;;;;;;;;;6236125;28;20232;-67
2023/05/09 02:43:29;;;;;;;2.50;2.30;;;;;;;;;;6226939;28;20224;-67
2023/05/09 02:46:50;;;;;;;3.10;2.30;;;;;;;;;;6221728;28;20271;-68
2023/05/09 02:50:11;;;;;;;2.60;2.40;;;;;;;;;;6210222;28;20317;-68
2023/05/09 02:53:33;;;;;;;2.20;2.10;;;;;;;;;;6220987;28;20323;-67
2023/05/09 02:56:54;;;;;;;2.67;2.47;;;;;;;;;;6236048;28;20232;-68
2023/05/09 03:00:16;;;;;;;3.20;3.00;;;;;;;;;;6180231;28;20237;-67
2023/05/09 03:03:37;;;;;;;2.70;2.50;;;;;;;;;;6215483;28;20241;-67
2023/05/09 03:06:58;;;;;;;2.30;2.07;;;;;;;;;;6208351;28;20248;-68
2023/05/09 03:10:25;;;;;;;2.97;2.77;;;;;;;;;;6213681;28;20225;-68
2023/05/09 03:13:46;;;;;;;3.40;3.10;;;;;;;;;;6234941;28;20248;-67
2023/05/09 03:17:06;;;;;;;3.40;2.03;;;;;;;;;;6212760;28;20307;-68
2023/05/09 03:20:29;;;;;;;5.07;2.93;;;;;;;;;;6198794;28;20607;-68
2023/05/09 03:23:49;;;;;;;2.70;2.50;;;;;;;;;;6244633;28;20237;-68
2023/05/09 03:27:11;;;;;;;3.47;2.70;;;;;;;;;;6253895;28;20231;-68
2023/05/09 03:30:32;;;;;;;2.57;2.37;;;;;;;;;;6224935;28;20649;-68
2023/05/09 03:33:52;;;;;;;2.67;2.07;;;;;;;;;;6241171;28;20236;-68
2023/05/09 03:37:13;;;;;;;3.57;2.47;;;;;;;;;;6247383;28;20239;-67
2023/05/09 03:40:35;;;;;;;2.20;2.10;;;;;;;;;;6239232;28;20232;-68
2023/05/09 03:44:04;;;;;;;2.10;1.90;;;;;;;;;;6212650;28;20237;-68
2023/05/09 03:47:25;;;;;;;2.23;2.07;;;;;;;;;;6237124;28;20227;-67
2023/05/09 03:50:46;;;;;;;2.60;2.40;;;;;;;;;;6180086;28;20241;-68
2023/05/09 03:54:08;;;;;;;3.57;2.27;;;;;;;;;;6213286;28;20234;-69
2023/05/09 03:57:29;;;;;;;3.27;3.07;;;;;;;;;;6204692;28;20227;-68
2023/05/09 04:00:52;;;;;;;2.43;2.17;;;;;;;;;;6200929;28;21045;-68
2023/05/09 04:04:16;;;;;;;5.20;2.47;;;;;;;;;;6210038;28;20337;-68
2023/05/09 04:07:38;;;;;;;3.17;2.40;;;;;;;;;;6200302;28;20233;-69
2023/05/09 04:10:58;;;;;;;2.90;2.67;;;;;;;;;;6201663;28;20259;-67
2023/05/09 04:14:19;;;;;;;2.17;2.00;;;;;;;;;;6208078;28;20229;-68
2023/05/09 04:17:41;;;;;;;2.40;2.20;;;;;;;;;;6197656;28;20230;-68
2023/05/09 04:21:02;;;;;;;3.03;2.83;;;;;;;;;;6210550;28;20216;-68
2023/05/09 04:24:23;;;;;;;4.03;2.13;;;;;;;;;;6222914;28;20240;-68
2023/05/09 04:27:44;;;;;;;2.70;2.60;;;;;;;;;;6230841;28;20221;-67
2023/05/09 04:31:05;;;;;;;2.83;2.27;;;;;;;;;;6200297;28;20229;-67
2023/05/09 04:34:28;;;;;;;2.30;2.10;;;;;;;;;;6202892;28;20232;-67
2023/05/09 04:37:52;;;;;;;4.03;3.47;;;;;;;;;;6197706;28;20233;-67
2023/05/09 04:41:13;;;;;;;2.73;2.53;;;;;;;;;;6208320;28;20228;-67
2023/05/09 04:44:34;;;;;;;4.70;3.47;;;;;;;;;;6209107;28;20248;-68
2023/05/09 04:47:55;;;;;;;3.63;2.57;;;;;;;;;;6206190;28;21270;-67
2023/05/09 04:51:17;;;;;;;5.67;2.33;;;;;;;;;;6230493;28;20247;-68
2023/05/09 04:54:38;;;;;;;2.70;2.50;;;;;;;;;;6234123;28;20225;-68
2023/05/09 04:57:59;;;;;;;5.20;2.67;;;;;;;;;;6247757;28;20257;-68
2023/05/09 05:01:20;;;;;;;5.73;2.83;;;;;;;;;;6206421;28;20225;-67
2023/05/09 05:04:41;;;;;;;3.00;2.67;;;;;;;;;;6209135;28;20636;-67
2023/05/09 05:08:04;;;;;;;3.03;2.83;;;;;;;;;;6200772;28;20241;-67
2023/05/09 05:11:29;;;;;;;2.70;2.50;;;;;;;;;;6215868;28;20610;-67
2023/05/09 05:14:49;;;;;;;2.97;1.93;;;;;;;;;;6208188;28;20233;-68
2023/05/09 05:18:13;;;;;;;3.37;3.07;;;;;;;;;;6196970;28;20230;-67
2023/05/09 05:21:34;;;;;;;9.03;3.10;;;;;;;;;;6218926;28;20252;-67
2023/05/09 05:24:55;;;;;;;7.23;3.83;;;;;;;;;;6215214;28;20273;-67
2023/05/09 05:28:16;;;;;;;3.20;2.33;;;;;;;;;;6189167;28;20967;-67
2023/05/09 05:31:37;;;;;;;4.83;3.57;;;;;;;;;;6229427;28;20231;-69
2023/05/09 05:34:57;;;;;;;2.77;2.57;;;;;;;;;;6206192;28;20229;-68
2023/05/09 05:38:19;;;;;;;3.67;2.07;;;;;;;;;;6226257;28;20323;-68
2023/05/09 05:41:44;;;;;;;2.63;2.30;;;;;;;;;;6196834;28;20228;-67
2023/05/09 05:45:05;;;;;;;2.93;2.73;;;;;;;;;;6210370;28;20241;-68
2023/05/09 05:48:31;;;;;;;2.97;2.53;;;;;;;;;;6221545;28;20602;-68
2023/05/09 05:51:52;;;;;;;2.40;2.20;;;;;;;;;;6239909;28;20235;-68
2023/05/09 05:55:14;;;;;;;3.87;3.43;;;;;;;;;;6215411;28;20782;-69
2023/05/09 05:58:36;;;;;;;3.33;2.87;;;;;;;;;;6226590;28;20587;-67
2023/05/09 06:01:59;;;;;;;8.17;3.10;;;;;;;;;;6210998;28;20315;-68
2023/05/09 06:05:20;;;;;;;3.33;3.03;;;;;;;;;;6203291;28;20722;-68
2023/05/09 06:08:41;;;;;;;3.00;2.80;;;;;;;;;;6235463;28;20589;-67
2023/05/09 06:12:01;;;;;;;4.20;2.47;;;;;;;;;;6227990;28;20240;-67
2023/05/09 06:15:23;;;;;;;3.93;3.50;;;;;;;;;;6252704;28;20240;-68
2023/05/09 06:18:44;;;;;;;5.43;3.27;;;;;;;;;;6258034;28;20227;-68
2023/05/09 06:22:04;;;;;;;3.53;3.10;;;;;;;;;;6265375;28;20231;-67
2023/05/09 06:25:25;;;;;;;3.53;3.23;;;;;;;;;;6234531;28;20225;-68
2023/05/09 06:28:46;;;;;;;3.43;3.20;;;;;;;;;;6237032;28;20327;-68
2023/05/09 06:32:08;;;;;;;4.40;3.00;;;;;;;;;;6222252;28;20325;-67
2023/05/09 06:35:29;;;;;;;3.20;2.93;;;;;;;;;;6202068;28;20546;-68
2023/05/09 06:38:49;;;;;;;5.13;3.70;;;;;;;;;;6226708;28;20246;-68
2023/05/09 06:42:10;;;;;;;2.93;2.27;;;;;;;;;;6221783;28;20587;-68
2023/05/09 06:45:33;;;;;;;7.07;2.93;;;;;;;;;;6210461;28;20331;-68
2023/05/09 06:48:55;;;;;;;2.70;2.50;;;;;;;;;;6208998;28;20348;-68
2023/05/09 06:52:15;;;;;;;3.10;2.90;;;;;;;;;;6189670;28;20240;-67
2023/05/09 06:55:36;;;;;;;4.00;3.70;;;;;;;;;;6201357;28;20253;-67
2023/05/09 06:58:56;;;;;;;3.67;2.40;;;;;;;;;;6228983;28;20237;-68
2023/05/09 07:02:17;;;;;;;3.60;2.90;;;;;;;;;;6194212;28;20248;-66
2023/05/09 07:05:39;;;;;;;4.10;3.87;;;;;;;;;;6230464;28;20233;-67
2023/05/09 07:09:00;;;;;;;3.20;2.90;;;;;;;;;;6243499;28;20636;-68
2023/05/09 07:12:20;;;;;;;3.00;2.70;;;;;;;;;;6258648;28;20322;-68
2023/05/09 07:15:41;;;;;;;3.13;2.93;;;;;;;;;;6233559;28;20228;-67
2023/05/09 07:19:01;;;;;;;7.67;3.97;;;;;;;;;;6246918;28;20583;-66
2023/05/09 07:22:23;;;;;;;3.87;3.20;;;;;;;;;;6257912;28;20235;-67
2023/05/09 07:25:44;;;;;;;4.50;2.93;;;;;;;;;;6223632;28;20801;-67
2023/05/09 07:29:04;;;;;;;3.83;3.10;;;;;;;;;;6256845;28;20368;-67
2023/05/09 07:32:27;;;;;;;3.20;2.80;;;;;;;;;;6246316;28;20227;-68
2023/05/09 07:35:48;;;;;;;3.80;3.50;;;;;;;;;;6233158;28;20235;-68
2023/05/09 07:39:10;;;;;;;2.87;2.53;;;;;;;;;;6249889;28;20232;-67
2023/05/09 07:42:31;;;;;;;2.60;2.40;;;;;;;;;;6218815;28;20602;-67
2023/05/09 07:45:51;;;;;;;5.57;3.33;;;;;;;;;;6213160;28;20677;-68
2023/05/09 07:49:12;;;;;;;3.57;2.40;;;;;;;;;;6229323;28;20241;-67
2023/05/09 07:52:32;;;;;;;2.40;2.20;;;;;;;;;;6210015;28;20228;-68
2023/05/09 07:55:54;;;;;;;3.93;2.67;;;;;;;;;;6216735;28;20228;-68
2023/05/09 07:59:15;;;;;;;5.27;2.87;;;;;;;;;;6218419;28;20595;-68
2023/05/09 08:02:36;;;;;;;2.93;2.60;;;;;;;;;;6213460;28;20236;-67
2023/05/09 08:05:56;;;;;;;2.73;2.40;;;;;;;;;;6200954;28;20236;-67
2023/05/09 08:09:17;;;;;;;2.73;2.57;;;;;;;;;;6226556;28;20249;-66
2023/05/09 08:12:39;;;;;;;2.70;2.50;;;;;;;;;;6214828;28;20237;-68
2023/05/09 08:16:00;;;;;;;1.80;1.70;;;;;;;;;;6201938;28;20237;-68
2023/05/09 08:19:23;;;;;;;2.73;2.50;;;;;;;;;;6230390;28;20228;-68
2023/05/09 08:22:43;;;;;;;4.57;2.50;;;;;;;;;;6220228;28;20229;-68
2023/05/09 08:26:04;;;;;;;2.77;2.57;;;;;;;;;;6215579;28;20237;-68
2023/05/09 08:29:27;;;;;;;2.60;2.03;;;;;;;;;;6215216;28;20241;-68
2023/05/09 08:32:48;;;;;;;2.90;2.60;;;;;;;;;;6200296;28;20233;-67
2023/05/09 08:36:09;;;;;;;7.70;2.77;;;;;;;;;;6203115;28;20229;-68
2023/05/09 08:39:29;;;;;;;14.93;3.10;;;;;;;;;;6218480;28;20237;-68
2023/05/09 08:42:50;;;;;;;3.23;2.37;;;;;;;;;;6229637;28;20236;-67
2023/05/09 08:46:13;;;;;;;2.33;2.13;;;;;;;;;;6225967;28;20232;-68
2023/05/09 08:49:33;;;;;;;4.50;2.63;;;;;;;;;;6221466;28;20243;-67
2023/05/09 08:52:54;;;;;;;1.80;1.70;;;;;;;;;;6215583;28;20233;-68
2023/05/09 08:59:58;;;;;;;2.40;2.20;;;;;;;;;;6099852;23;20233;-67
2023/05/09 09:03:20;;;;;;;2.30;2.10;;;;;;;;;;6055806;29;20250;-68
2023/05/09 09:06:41;;;;;;;2.67;1.83;;;;;;;;;;6073908;29;20322;-68
2023/05/09 09:10:03;;;;;;;2.13;2.03;;;;;;;;;;6088824;29;20244;-66
2023/05/09 09:13:24;;;;;;;3.57;3.27;;;;;;;;;;6085805;29;20598;-68
2023/05/09 09:16:44;;;;;;;4.90;2.30;;;;;;;;;;6089362;29;20239;-67
2023/05/09 09:20:08;;;;;;;3.40;1.80;;;;;;;;;;6082182;29;20606;-68
2023/05/09 09:23:30;;;;;;;4.27;2.13;;;;;;;;;;6091727;29;20228;-67
2023/05/09 09:26:51;;;;;;;5.82;3.30;;;;;;;;;;6078532;29;21037;-67
2023/05/09 09:30:12;;;;;;;3.88;2.65;;;;;;;;;;6076997;29;20311;-68
2023/05/09 09:33:32;;;;;;;2.88;1.67;;;;;;;;;;6067851;28;20245;-66
2023/05/09 09:36:54;;;;;;;4.22;2.40;;;;;;;;;;6073942;28;20251;-68
2023/05/09 09:40:16;;;;;;;3.05;2.40;;;;;;;;;;6086532;29;20236;-67
2023/05/09 09:43:37;;;;;;;1.75;1.65;;;;;;;;;;6073821;29;20300;-67
2023/05/09 09:46:58;;;;;;;3.63;2.33;;;;;;;;;;6071585;29;20645;-66
2023/05/09 09:50:21;;;;;;;5.35;3.03;;;;;;;;;;6081164;29;20472;-67
2023/05/09 09:53:44;;;;;;;2.63;1.67;;;;;;;;;;6093830;28;20232;-67
2023/05/09 09:57:04;;;;;;;3.40;2.25;;;;;;;;;;6097177;28;20613;-68
2023/05/09 10:00:26;;;;;;;2.72;1.90;;;;;;;;;;6065406;29;20236;-68
2023/05/09 10:03:46;;;;;;;14.93;2.45;;;;;;;;;;6083714;29;20233;-67
2023/05/09 10:07:09;;;;;;;2.70;1.50;;;;;;;;;;6095178;29;20231;-67
2023/05/09 10:10:31;;;;;;;2.72;1.90;;;;;;;;;;6069464;29;20233;-67
2023/05/09 10:13:52;;;;;;;3.50;2.22;;;;;;;;;;6081450;29;20244;-67
2023/05/09 10:17:13;;;;;;;2.13;1.92;;;;;;;;;;6084607;29;20232;-68
2023/05/09 10:20:34;;;;;;;3.38;2.35;;;;;;;;;;6056687;29;20240;-67
2023/05/09 10:23:55;;;;;;;2.17;1.98;;;;;;;;;;6084997;29;20249;-67
2023/05/09 10:27:21;;;;;;;2.40;1.88;;;;;;;;;;6070605;28;20503;-66
2023/05/09 10:30:50;;;;;;;2.20;2.10;;;;;;;;;;6072031;29;20570;-69
2023/05/09 10:34:11;;;;;;;2.25;2.15;;;;;;;;;;6093427;29;20232;-68
2023/05/09 10:37:32;;;;;;;2.90;1.50;;;;;;;;;;6093706;29;20673;-67
2023/05/09 10:40:53;;;;;;;2.22;2.03;;;;;;;;;;6081113;29;20235;-68
2023/05/09 10:44:15;;;;;;;2.03;1.80;;;;;;;;;;6091762;29;20271;-67
2023/05/09 10:47:36;;;;;;;2.47;2.28;;;;;;;;;;6073081;29;20515;-68
2023/05/09 10:50:56;;;;;;;5.95;2.65;;;;;;;;;;6093261;29;20244;-68
2023/05/09 10:54:25;;;;;;;3.30;2.17;;;;;;;;;;6084660;29;20232;-68
2023/05/09 10:57:52;;;;;;;1.95;1.85;;;;;;;;;;6082766;29;20252;-67
2023/05/09 11:01:14;;;;;;;2.95;2.30;;;;;;;;;;6069344;29;20220;-68
2023/05/09 11:04:34;;;;;;;4.30;2.38;;;;;;;;;;6076023;29;20253;-68
2023/05/09 11:08:10;;;;;;;3.60;2.80;;;;;;;;;;6074091;28;20316;-68
2023/05/09 11:11:30;;;;;;;2.13;1.92;;;;;;;;;;6084349;29;20247;-68
2023/05/09 11:14:52;;;;;;;2.35;2.15;;;;;;;;;;6077733;29;20323;-68
2023/05/09 11:18:14;;;;;;;3.40;3.08;;;;;;;;;;6076783;29;20229;-67
2023/05/09 11:21:36;;;;;;;2.33;1.95;;;;;;;;;;6073930;29;20243;-67
2023/05/09 11:25:01;;;;;;;3.85;1.60;;;;;;;;;;6082727;29;20236;-68
2023/05/09 11:28:28;;;;;;;1.88;1.63;;;;;;;;;;6040051;29;20240;-67
2023/05/09 11:32:05;;;;;;;2.03;1.92;;;;;;;;;;6078208;29;20243;-67
2023/05/09 11:35:26;;;;;;;1.90;1.35;;;;;;;;;;6049028;29;20619;-68
2023/05/09 11:38:47;;;;;;;2.60;1.38;;;;;;;;;;6080038;29;20552;-69
2023/05/09 11:42:08;;;;;;;2.38;1.55;;;;;;;;;;6057733;29;20241;-68
2023/05/09 11:45:30;;;;;;;2.65;2.10;;;;;;;;;;6066479;29;20520;-68
2023/05/09 11:48:51;;;;;;;2.47;2.22;;;;;;;;;;6090225;29;20229;-67
2023/05/09 11:52:13;;;;;;;4.60;2.78;;;;;;;;;;6066519;29;21538;-67
2023/05/09 11:55:37;;;;;;;2.58;1.42;;;;;;;;;;6066955;29;20247;-68
2023/05/09 11:58:58;;;;;;;3.67;1.83;;;;;;;;;;6086833;28;20244;-68
2023/05/09 12:02:18;;;;;;;2.15;1.95;;;;;;;;;;6061268;29;20264;-68
2023/05/09 12:05:39;;;;;;;4.32;3.25;;;;;;;;;;6067983;28;20245;-66
2023/05/09 12:09:01;;;;;;;4.28;2.35;;;;;;;;;;6079513;29;20240;-67
2023/05/09 12:12:22;;;;;;;2.03;1.90;;;;;;;;;;6089493;29;20519;-68
2023/05/09 12:15:42;;;;;;;2.15;1.95;;;;;;;;;;6071580;29;20563;-66
2023/05/09 12:19:03;;;;;;;5.18;2.50;;;;;;;;;;6082301;29;20236;-68
2023/05/09 12:22:24;;;;;;;4.90;3.47;;;;;;;;;;6079909;29;20480;-67
2023/05/09 12:25:53;;;;;;;7.68;6.88;;;;;;;;;;6060899;29;20263;-67
2023/05/09 12:29:13;;;;;;;8.77;7.80;;;;;;;;;;6089655;29;20277;-68
2023/05/09 12:32:35;;;;;;;11.73;10.02;;;;;;;;;;6075034;29;21312;-67
2023/05/09 12:36:03;;;;;;;8.63;7.78;;;;;;;;;;6061798;29;20645;-66
2023/05/09 12:39:25;;;;;;;6.57;3.40;;;;;;;;;;6081398;29;20232;-68
2023/05/09 12:42:47;;;;;;;3.30;1.88;;;;;;;;;;6090142;28;20507;-67
2023/05/09 12:46:08;;;;;;;5.30;3.20;;;;;;;;;;6059287;29;20420;-69
2023/05/09 12:49:29;;;;;;;2.53;2.33;;;;;;;;;;6073705;29;20542;-68
2023/05/09 12:52:51;;;;;;;2.25;2.03;;;;;;;;;;6057245;29;20599;-68
2023/05/09 12:56:13;;;;;;;2.17;2.03;;;;;;;;;;6068756;29;20236;-68
2023/05/09 12:59:34;;;;;;;2.30;1.45;;;;;;;;;;6083238;28;20286;-68
2023/05/09 13:02:58;;;;;;;5.47;2.38;;;;;;;;;;6049095;29;25823;-68
2023/05/09 13:06:19;;;;;;;3.60;2.75;;;;;;;;;;6057112;29;20233;-66
2023/05/09 13:09:54;;;;;;;2.70;1.48;;;;;;;;;;6066412;29;20225;-67
2023/05/09 13:13:15;;;;;;;2.00;1.90;;;;;;;;;;6086943;29;20237;-68
2023/05/09 13:16:37;;;;;;;2.97;1.58;;;;;;;;;;6069578;29;20513;-67
2023/05/09 13:19:57;;;;;;;2.90;2.70;;;;;;;;;;6062102;29;20682;-67
2023/05/09 13:23:18;;;;;;;3.00;2.22;;;;;;;;;;6048793;29;20242;-67
2023/05/09 13:26:38;;;;;;;1.58;1.48;;;;;;;;;;6052408;29;20236;-68
2023/05/09 13:29:59;;;;;;;1.52;1.33;;;;;;;;;;6054234;29;20268;-68
2023/05/09 13:33:21;;;;;;;2.10;1.85;;;;;;;;;;6039023;29;20238;-68
2023/05/09 13:36:41;;;;;;;1.52;1.15;;;;;;;;;;6075256;29;20633;-68
2023/05/09 13:40:02;;;;;;;2.03;1.70;;;;;;;;;;6055389;29;20590;-66
2023/05/09 13:43:23;;;;;;;8.63;1.85;;;;;;;;;;6041534;29;20236;-68
2023/05/09 13:46:43;;;;;;;3.22;1.75;;;;;;;;;;6067384;29;20235;-67
2023/05/09 13:50:07;;;;;;;2.00;1.27;;;;;;;;;;6070936;29;20240;-67
2023/05/09 13:53:28;;;;;;;1.67;1.58;;;;;;;;;;6031389;29;20550;-68
2023/05/09 13:56:49;;;;;;;2.47;1.67;;;;;;;;;;6076489;29;20232;-68
2023/05/09 14:00:11;;;;;;;2.13;1.90;;;;;;;;;;6069202;28;20265;-68
2023/05/09 14:03:34;;;;;;;4.07;2.67;;;;;;;;;;6065067;28;20249;-68
2023/05/09 14:06:57;;;;;;;2.00;1.75;;;;;;;;;;6080538;29;20560;-68
2023/05/09 14:10:17;;;;;;;1.10;1.10;;;;;;;;;;6069967;29;20233;-68
2023/05/09 14:13:38;;;;;;;1.50;1.40;;;;;;;;;;6038571;29;20235;-67
2023/05/09 14:16:58;;;;;;;2.53;1.85;;;;;;;;;;6067940;29;20985;-67
2023/05/09 14:20:20;;;;;;;1.85;1.58;;;;;;;;;;6044349;29;20245;-66
2023/05/09 14:23:42;;;;;;;2.55;1.58;;;;;;;;;;6067270;29;20237;-67
2023/05/09 14:27:02;;;;;;;2.97;1.70;;;;;;;;;;6076846;29;20240;-68
2023/05/09 14:30:24;;;;;;;1.67;1.58;;;;;;;;;;6057545;29;20237;-67
2023/05/09 14:33:44;;;;;;;2.78;1.58;;;;;;;;;;6078653;29;20241;-67
2023/05/09 14:37:12;;;;;;;1.85;1.75;;;;;;;;;;6078206;29;20232;-68
2023/05/09 14:40:33;;;;;;;3.03;2.00;;;;;;;;;;6060069;29;20534;-66
2023/05/09 14:43:54;;;;;;;2.65;1.33;;;;;;;;;;6075594;29;20233;-68
2023/05/09 14:47:15;;;;;;;2.47;1.40;;;;;;;;;;6075937;29;20233;-67
2023/05/09 14:50:36;;;;;;;2.97;1.75;;;;;;;;;;6059317;28;20582;-67
2023/05/09 14:53:56;;;;;;;3.00;2.25;;;;;;;;;;6086716;29;20432;-68
2023/05/09 14:57:18;;;;;;;1.73;1.63;;;;;;;;;;6075016;29;20244;-67
2023/05/09 15:00:38;;;;;;;2.53;1.70;;;;;;;;;;6049918;29;20245;-66
2023/05/09 15:03:59;;;;;;;3.42;1.95;;;;;;;;;;6053152;29;20257;-67
2023/05/09 15:07:19;;;;;;;1.10;1.02;;;;;;;;;;6079083;29;20597;-67
2023/05/09 15:10:40;;;;;;;2.97;1.05;;;;;;;;;;6053599;29;21267;-67
2023/05/09 15:14:02;;;;;;;2.83;2.33;;;;;;;;;;6075902;28;20578;-68
2023/05/09 15:17:23;;;;;;;1.83;1.70;;;;;;;;;;6035819;29;21130;-67
2023/05/09 15:20:44;;;;;;;3.53;1.38;;;;;;;;;;6025217;29;20234;-68
2023/05/09 15:24:05;;;;;;;5.35;1.67;;;;;;;;;;6022151;29;21856;-67
2023/05/09 15:27:25;;;;;;;2.55;1.63;;;;;;;;;;6075783;29;20264;-68
2023/05/09 15:30:47;;;;;;;2.95;1.73;;;;;;;;;;6050688;29;20525;-67
2023/05/09 15:34:08;;;;;;;2.65;1.45;;;;;;;;;;6037203;29;20357;-67
2023/05/09 15:37:28;;;;;;;1.45;1.35;;;;;;;;;;6059059;29;20240;-67
2023/05/09 15:40:49;;;;;;;2.25;1.30;;;;;;;;;;6015012;29;20233;-68
2023/05/09 15:44:10;;;;;;;2.63;1.08;;;;;;;;;;6080117;29;20229;-68
2023/05/09 15:47:32;;;;;;;2.03;1.48;;;;;;;;;;6072996;29;20321;-68
2023/05/09 15:50:52;;;;;;;3.88;1.65;;;;;;;;;;6047050;29;20265;-68
2023/05/09 15:54:13;;;;;;;5.75;1.95;;;;;;;;;;6080131;29;20241;-68
2023/05/09 15:57:34;;;;;;;2.58;1.58;;;;;;;;;;6031974;29;20784;-67
2023/05/09 16:00:55;;;;;;;2.10;1.27;;;;;;;;;;6029323;29;20237;-68
2023/05/09 16:04:17;;;;;;;0.90;0.90;;;;;;;;;;6061417;29;20241;-68
2023/05/09 16:07:37;;;;;;;1.40;1.30;;;;;;;;;;6080672;28;20497;-68
2023/05/09 16:10:59;;;;;;;1.75;1.65;;;;;;;;;;6027649;29;20249;-67
2023/05/09 16:14:20;;;;;;;2.13;1.80;;;;;;;;;;6048932;29;20533;-67
2023/05/09 16:17:41;;;;;;;1.40;1.30;;;;;;;;;;6080629;28;20253;-68
2023/05/09 16:21:02;;;;;;;3.08;2.05;;;;;;;;;;6044529;29;20485;-68
2023/05/09 16:24:23;;;;;;;4.97;2.20;;;;;;;;;;6065342;29;20241;-67
2023/05/09 16:27:44;;;;;;;2.25;2.05;;;;;;;;;;6048700;29;20234;-68
2023/05/09 16:31:06;;;;;;;4.32;3.83;;;;;;;;;;6053612;28;20573;-68
2023/05/09 16:34:27;;;;;;;4.65;2.10;;;;;;;;;;6068202;29;20623;-68
2023/05/09 16:37:52;;;;;;;3.00;2.17;;;;;;;;;;6072495;29;20232;-69
2023/05/09 16:41:13;;;;;;;5.25;2.30;;;;;;;;;;6030789;29;20323;-68
2023/05/09 16:44:34;;;;;;;1.10;1.00;;;;;;;;;;6071716;28;20249;-67
2023/05/09 16:47:56;;;;;;;3.70;2.67;;;;;;;;;;6051090;29;20237;-67
2023/05/09 16:51:19;;;;;;;2.45;1.75;;;;;;;;;;6054942;29;20260;-67
2023/05/09 16:54:40;;;;;;;3.78;1.67;;;;;;;;;;6048055;29;20234;-67
2023/05/09 16:58:01;;;;;;;1.35;1.10;;;;;;;;;;6068077;29;20619;-68
2023/05/09 17:01:21;;;;;;;1.70;1.60;;;;;;;;;;6053531;29;20236;-67
2023/05/09 17:04:42;;;;;;;5.45;1.25;;;;;;;;;;6068094;29;20558;-68
2023/05/09 17:08:02;;;;;;;1.15;1.05;;;;;;;;;;6050726;29;22170;-67
2023/05/09 17:11:25;;;;;;;3.55;2.00;;;;;;;;;;6042157;29;20559;-67
2023/05/09 17:14:46;;;;;;;3.17;1.50;;;;;;;;;;6052207;29;20234;-68
2023/05/09 17:18:06;;;;;;;2.45;1.50;;;;;;;;;;6063395;29;20619;-68
2023/05/09 17:21:28;;;;;;;4.75;1.92;;;;;;;;;;6057197;29;20236;-66
2023/05/09 17:24:48;;;;;;;3.05;1.98;;;;;;;;;;6055554;29;20238;-67
2023/05/09 17:28:10;;;;;;;3.75;2.55;;;;;;;;;;6066372;29;20237;-67
2023/05/09 17:31:31;;;;;;;3.45;3.03;;;;;;;;;;6064040;29;20239;-66
2023/05/09 17:34:52;;;;;;;3.33;2.35;;;;;;;;;;6073492;29;20237;-68
2023/05/09 17:38:12;;;;;;;4.00;1.88;;;;;;;;;;6089962;29;20671;-67
2023/05/09 17:41:33;;;;;;;7.53;1.60;;;;;;;;;;6045679;29;20836;-67
2023/05/09 17:44:55;;;;;;;1.63;1.52;;;;;;;;;;6068811;29;20241;-68
2023/05/09 17:48:16;;;;;;;2.05;1.55;;;;;;;;;;6074099;29;20241;-69
2023/05/09 17:51:36;;;;;;;3.65;2.58;;;;;;;;;;6070535;29;20264;-68
2023/05/09 17:54:57;;;;;;;2.17;1.55;;;;;;;;;;6062810;29;20233;-67
2023/05/09 17:58:18;;;;;;;1.65;1.45;;;;;;;;;;6062126;29;20238;-67
2023/05/09 18:01:40;;;;;;;10.30;2.60;;;;;;;;;;6064331;29;20248;-68
2023/05/09 18:05:01;;;;;;;2.92;1.45;;;;;;;;;;6054850;29;20608;-68
2023/05/09 18:08:21;;;;;;;2.55;1.48;;;;;;;;;;6031378;29;20241;-68
2023/05/09 18:11:42;;;;;;;3.78;1.20;;;;;;;;;;6073610;29;20224;-67
2023/05/09 18:15:03;;;;;;;3.70;1.95;;;;;;;;;;6071244;28;20229;-67
2023/05/09 18:18:27;;;;;;;2.33;1.92;;;;;;;;;;6054661;29;20241;-68
2023/05/09 18:21:47;;;;;;;2.60;2.10;;;;;;;;;;6073586;29;20232;-68
2023/05/09 18:25:08;;;;;;;1.50;1.20;;;;;;;;;;6067579;29;20267;-68
2023/05/09 18:28:29;;;;;;;6.07;1.60;;;;;;;;;;6082592;29;20237;-68
2023/05/09 18:31:50;;;;;;;1.48;1.25;;;;;;;;;;6052772;29;20249;-68
2023/05/09 18:35:11;;;;;;;3.70;1.52;;;;;;;;;;6036214;29;20258;-67
2023/05/09 18:38:36;;;;;;;1.33;1.23;;;;;;;;;;6063826;28;20229;-69
2023/05/09 18:41:57;;;;;;;2.00;1.70;;;;;;;;;;6049605;29;20305;-69
2023/05/09 18:45:17;;;;;;;3.03;1.17;;;;;;;;;;6072207;29;20623;-68
2023/05/09 18:48:38;;;;;;;3.55;2.28;;;;;;;;;;6057923;29;20324;-68
2023/05/09 18:52:00;;;;;;;2.45;1.30;;;;;;;;;;6083635;29;20508;-68
2023/05/09 18:55:21;;;;;;;6.38;2.25;;;;;;;;;;6042232;29;20495;-69
2023/05/09 18:58:42;;;;;;;4.63;1.67;;;;;;;;;;6065865;29;20229;-68
2023/05/09 19:02:02;;;;;;;1.40;1.30;;;;;;;;;;6052012;29;20237;-69
2023/05/09 19:05:23;;;;;;;2.25;1.63;;;;;;;;;;6042583;29;20267;-68
2023/05/09 19:08:46;;;;;;;3.63;1.55;;;;;;;;;;6087674;29;20237;-68
2023/05/09 19:12:08;;;;;;;3.92;2.08;;;;;;;;;;6083143;29;20228;-68
2023/05/09 19:15:29;;;;;;;2.33;1.92;;;;;;;;;;6049414;29;20350;-69
2023/05/09 19:18:50;;;;;;;1.90;1.65;;;;;;;;;;6089654;29;20263;-68
2023/05/09 19:22:10;;;;;;;1.52;1.42;;;;;;;;;;6054102;29;20233;-68
2023/05/09 19:25:32;;;;;;;2.88;1.45;;;;;;;;;;6030991;29;20242;-68
2023/05/09 19:28:53;;;;;;;1.88;1.70;;;;;;;;;;6084585;28;20237;-70
2023/05/09 19:32:13;;;;;;;2.20;1.73;;;;;;;;;;6050882;29;20267;-68
2023/05/09 19:35:35;;;;;;;3.80;2.15;;;;;;;;;;6046093;29;20528;-69
2023/05/09 19:38:55;;;;;;;1.90;1.10;;;;;;;;;;6085930;29;20582;-69
2023/05/09 19:42:17;;;;;;;4.53;1.38;;;;;;;;;;6075750;29;22493;-68
2023/05/09 19:45:38;;;;;;;4.32;1.95;;;;;;;;;;6059418;29;20488;-68
2023/05/09 19:48:59;;;;;;;1.80;1.48;;;;;;;;;;6079534;29;21697;-69
2023/05/09 19:52:19;;;;;;;2.00;1.35;;;;;;;;;;6066495;29;20583;-70
2023/05/09 19:55:40;;;;;;;2.10;1.73;;;;;;;;;;6055295;29;20592;-68
2023/05/09 19:59:01;;;;;;;1.90;1.65;;;;;;;;;;6082913;28;20241;-68
2023/05/09 20:02:22;;;;;;;2.10;1.15;;;;;;;;;;6044431;29;20233;-68
2023/05/09 20:05:43;;;;;;;3.05;1.80;;;;;;;;;;6046500;29;20228;-68
2023/05/09 20:09:03;;;;;;;4.18;1.77;;;;;;;;;;6062760;29;20237;-69
2023/05/09 20:12:24;;;;;;;2.80;2.00;;;;;;;;;;6050392;29;20329;-68